sensor_id;sensor_type;location;lat;lon;timestamp;pressure;altitude;pressure_sealevel;temperature;humidity
50592;BME280;36548;50.506;30.834;2022-09-09T00:00:59;100675.20;;;10.77;55.70
50592;BME280;36548;50.506;30.834;2022-09-09T00:02:23;100674.27;;;10.62;55.64
50592;BME280;36548;50.506;30.834;2022-09-09T00:04:25;100666.55;;;10.71;55.81
50592;BME280;36548;50.506;30.834;2022-09-09T00:05:41;100669.27;;;10.55;55.97
50592;BME280;36548;50.506;30.834;2022-09-09T00:07:19;100661.73;;;10.62;56.23
50592;BME280;36548;50.506;30.834;2022-09-09T00:11:34;100657.17;;;10.48;56.29
50592;BME280;36548;50.506;30.834;2022-09-09T00:22:05;100657.41;;;10.28;57.17
50592;BME280;36548;50.506;30.834;2022-09-09T00:23:33;100670.30;;;10.21;57.09
50592;BME280;36548;50.506;30.834;2022-09-09T00:24:51;100658.08;;;10.31;56.93
50592;BME280;36548;50.506;30.834;2022-09-09T00:27:50;100671.49;;;10.31;57.17
50592;BME280;36548;50.506;30.834;2022-09-09T00:30:34;100677.64;;;10.17;57.60
50592;BME280;36548;50.506;30.834;2022-09-09T00:31:44;100677.73;;;10.16;57.46
50592;BME280;36548;50.506;30.834;2022-09-09T00:33:10;100675.58;;;10.22;57.56
50592;BME280;36548;50.506;30.834;2022-09-09T00:34:19;100686.48;;;10.19;57.42
50592;BME280;36548;50.506;30.834;2022-09-09T00:35:37;100666.41;;;10.27;57.27
50592;BME280;36548;50.506;30.834;2022-09-09T00:36:52;100666.58;;;10.23;57.30
50592;BME280;36548;50.506;30.834;2022-09-09T00:38:14;100673.48;;;10.12;57.65
50592;BME280;36548;50.506;30.834;2022-09-09T00:39:37;100668.73;;;10.17;57.53
50592;BME280;36548;50.506;30.834;2022-09-09T00:40:55;100668.47;;;10.21;57.62
50592;BME280;36548;50.506;30.834;2022-09-09T00:44:03;100666.67;;;10.22;57.77
50592;BME280;36548;50.506;30.834;2022-09-09T00:47:23;100673.75;;;10.07;57.88
50592;BME280;36548;50.506;30.834;2022-09-09T00:53:02;100681.80;;;10.23;57.78
50592;BME280;36548;50.506;30.834;2022-09-09T01:00:25;100680.94;;;10.22;57.44
50592;BME280;36548;50.506;30.834;2022-09-09T01:01:42;100679.67;;;10.46;57.19
50592;BME280;36548;50.506;30.834;2022-09-09T01:04:19;100679.77;;;10.44;56.96
50592;BME280;36548;50.506;30.834;2022-09-09T01:06:50;100686.45;;;10.37;56.71
50592;BME280;36548;50.506;30.834;2022-09-09T01:08:14;100686.78;;;10.47;56.84
50592;BME280;36548;50.506;30.834;2022-09-09T01:10:58;100682.31;;;10.30;57.40
50592;BME280;36548;50.506;30.834;2022-09-09T01:13:32;100689.78;;;10.24;57.19
50592;BME280;36548;50.506;30.834;2022-09-09T01:14:52;100693.70;;;10.35;57.09
50592;BME280;36548;50.506;30.834;2022-09-09T01:16:29;100690.41;;;10.46;56.84
50592;BME280;36548;50.506;30.834;2022-09-09T01:18:58;100698.98;;;10.36;56.93
50592;BME280;36548;50.506;30.834;2022-09-09T01:20:26;100688.77;;;10.43;56.98
50592;BME280;36548;50.506;30.834;2022-09-09T01:21:50;100689.24;;;10.34;57.04
50592;BME280;36548;50.506;30.834;2022-09-09T01:24:48;100696.63;;;10.46;56.52
50592;BME280;36548;50.506;30.834;2022-09-09T01:27:41;100701.58;;;10.54;56.27
50592;BME280;36548;50.506;30.834;2022-09-09T01:28:52;100698.89;;;10.54;56.23
50592;BME280;36548;50.506;30.834;2022-09-09T01:31:34;100697.16;;;10.69;56.11
50592;BME280;36548;50.506;30.834;2022-09-09T01:32:49;100710.39;;;10.56;56.15
50592;BME280;36548;50.506;30.834;2022-09-09T01:33:58;100703.23;;;10.56;56.16
50592;BME280;36548;50.506;30.834;2022-09-09T01:35:15;100707.62;;;10.57;56.09
50592;BME280;36548;50.506;30.834;2022-09-09T01:38:13;100695.74;;;10.78;55.77
50592;BME280;36548;50.506;30.834;2022-09-09T01:39:25;100700.36;;;10.60;55.85
50592;BME280;36548;50.506;30.834;2022-09-09T01:40:37;100700.27;;;10.61;55.96
50592;BME280;36548;50.506;30.834;2022-09-09T01:41:53;100690.38;;;10.78;55.91
50592;BME280;36548;50.506;30.834;2022-09-09T01:43:06;100697.67;;;10.60;55.99
50592;BME280;36548;50.506;30.834;2022-09-09T01:44:24;100687.60;;;10.63;56.15
50592;BME280;36548;50.506;30.834;2022-09-09T01:45:35;100696.54;;;10.48;56.40
50592;BME280;36548;50.506;30.834;2022-09-09T01:46:45;100694.56;;;10.51;56.22
50592;BME280;36548;50.506;30.834;2022-09-09T01:48:00;100699.68;;;10.40;56.53
50592;BME280;36548;50.506;30.834;2022-09-09T01:49:23;100693.52;;;10.38;56.58
50592;BME280;36548;50.506;30.834;2022-09-09T01:50:37;100686.23;;;10.56;56.41
50592;BME280;36548;50.506;30.834;2022-09-09T01:51:50;100687.55;;;10.49;56.33
50592;BME280;36548;50.506;30.834;2022-09-09T01:53:13;100687.79;;;10.60;56.21
50592;BME280;36548;50.506;30.834;2022-09-09T01:54:28;100685.56;;;10.52;56.05
50592;BME280;36548;50.506;30.834;2022-09-09T01:57:20;100686.84;;;10.45;56.17
50592;BME280;36548;50.506;30.834;2022-09-09T02:03:07;100684.77;;;10.50;56.17
50592;BME280;36548;50.506;30.834;2022-09-09T02:04:41;100678.27;;;10.54;56.43
50592;BME280;36548;50.506;30.834;2022-09-09T02:06:01;100691.17;;;10.48;56.27
50592;BME280;36548;50.506;30.834;2022-09-09T02:08:59;100686.66;;;10.32;56.75
50592;BME280;36548;50.506;30.834;2022-09-09T02:10:23;100685.38;;;10.39;56.57
50592;BME280;36548;50.506;30.834;2022-09-09T02:11:40;100675.44;;;10.42;56.73
50592;BME280;36548;50.506;30.834;2022-09-09T02:13:03;100682.68;;;10.23;57.10
50592;BME280;36548;50.506;30.834;2022-09-09T02:19:45;100683.02;;;10.33;57.19
50592;BME280;36548;50.506;30.834;2022-09-09T02:21:10;100690.73;;;10.23;57.05
50592;BME280;36548;50.506;30.834;2022-09-09T02:22:22;100693.41;;;10.23;57.19
50592;BME280;36548;50.506;30.834;2022-09-09T02:23:34;100683.35;;;10.27;57.07
50592;BME280;36548;50.506;30.834;2022-09-09T02:24:53;100682.69;;;10.39;56.93
50592;BME280;36548;50.506;30.834;2022-09-09T02:26:09;100688.72;;;10.27;56.91
50592;BME280;36548;50.506;30.834;2022-09-09T02:27:20;100687.93;;;10.09;57.48
50592;BME280;36548;50.506;30.834;2022-09-09T02:28:31;100686.90;;;10.12;57.53
50592;BME280;36548;50.506;30.834;2022-09-09T02:29:43;100686.41;;;10.05;57.71
50592;BME280;36548;50.506;30.834;2022-09-09T02:31:01;100694.27;;;10.08;57.92
50592;BME280;36548;50.506;30.834;2022-09-09T02:32:15;100686.72;;;9.99;57.85
50592;BME280;36548;50.506;30.834;2022-09-09T02:33:28;100689.14;;;10.03;57.81
50592;BME280;36548;50.506;30.834;2022-09-09T02:34:49;100691.50;;;10.10;57.82
50592;BME280;36548;50.506;30.834;2022-09-09T02:36:02;100694.86;;;9.97;57.88
50592;BME280;36548;50.506;30.834;2022-09-09T02:37:20;100688.55;;;9.98;58.17
50592;BME280;36548;50.506;30.834;2022-09-09T02:38:35;100695.44;;;9.86;58.26
50592;BME280;36548;50.506;30.834;2022-09-09T02:39:48;100704.86;;;9.78;58.41
50592;BME280;36548;50.506;30.834;2022-09-09T02:41:00;100696.73;;;9.79;58.42
50592;BME280;36548;50.506;30.834;2022-09-09T02:42:16;100697.86;;;9.91;58.49
50592;BME280;36548;50.506;30.834;2022-09-09T02:43:30;100702.12;;;9.62;59.06
50592;BME280;36548;50.506;30.834;2022-09-09T02:44:44;100694.76;;;9.83;58.97
50592;BME280;36548;50.506;30.834;2022-09-09T02:46:15;100706.14;;;9.70;58.87
50592;BME280;36548;50.506;30.834;2022-09-09T02:47:36;100696.09;;;9.74;59.09
50592;BME280;36548;50.506;30.834;2022-09-09T02:50:14;100706.23;;;9.69;58.85
50592;BME280;36548;50.506;30.834;2022-09-09T02:54:30;100699.13;;;9.68;59.02
50592;BME280;36548;50.506;30.834;2022-09-09T02:55:47;100701.72;;;9.69;58.98
50592;BME280;36548;50.506;30.834;2022-09-09T02:57:28;100698.23;;;9.67;59.11
50592;BME280;36548;50.506;30.834;2022-09-09T02:58:40;100697.87;;;9.58;59.34
50592;BME280;36548;50.506;30.834;2022-09-09T02:59:50;100690.08;;;9.53;59.56
50592;BME280;36548;50.506;30.834;2022-09-09T03:01:06;100684.61;;;9.72;59.25
50592;BME280;36548;50.506;30.834;2022-09-09T03:02:18;100689.31;;;9.51;59.52
50592;BME280;36548;50.506;30.834;2022-09-09T03:03:35;100681.22;;;9.68;59.36
50592;BME280;36548;50.506;30.834;2022-09-09T03:04:47;100696.92;;;9.59;59.33
50592;BME280;36548;50.506;30.834;2022-09-09T03:06:04;100695.81;;;9.63;59.55
50592;BME280;36548;50.506;30.834;2022-09-09T03:07:14;100693.33;;;9.42;59.83
50592;BME280;36548;50.506;30.834;2022-09-09T03:08:30;100691.17;;;9.66;59.35
50592;BME280;36548;50.506;30.834;2022-09-09T03:09:40;100701.28;;;9.44;59.82
50592;BME280;36548;50.506;30.834;2022-09-09T03:10:51;100692.94;;;9.32;60.00
50592;BME280;36548;50.506;30.834;2022-09-09T03:12:09;100695.53;;;9.51;60.02
50592;BME280;36548;50.506;30.834;2022-09-09T03:13:20;100706.97;;;9.37;59.95
50592;BME280;36548;50.506;30.834;2022-09-09T03:14:35;100695.10;;;9.59;59.92
50592;BME280;36548;50.506;30.834;2022-09-09T03:15:43;100708.55;;;9.42;59.93
50592;BME280;36548;50.506;30.834;2022-09-09T03:16:59;100694.08;;;9.62;59.78
50592;BME280;36548;50.506;30.834;2022-09-09T03:18:12;100698.20;;;9.51;59.66
50592;BME280;36548;50.506;30.834;2022-09-09T03:19:22;100696.24;;;9.55;59.48
50592;BME280;36548;50.506;30.834;2022-09-09T03:20:33;100702.00;;;9.47;59.69
50592;BME280;36548;50.506;30.834;2022-09-09T03:21:43;100705.45;;;9.49;59.71
50592;BME280;36548;50.506;30.834;2022-09-09T03:22:53;100708.63;;;9.40;59.97
50592;BME280;36548;50.506;30.834;2022-09-09T03:24:03;100703.02;;;9.45;59.93
50592;BME280;36548;50.506;30.834;2022-09-09T03:25:13;100698.46;;;9.47;59.72
50592;BME280;36548;50.506;30.834;2022-09-09T03:26:25;100702.72;;;9.51;59.71
50592;BME280;36548;50.506;30.834;2022-09-09T03:27:34;100708.07;;;9.51;59.69
50592;BME280;36548;50.506;30.834;2022-09-09T03:28:44;100705.53;;;9.48;59.69
50592;BME280;36548;50.506;30.834;2022-09-09T03:29:59;100705.82;;;9.59;59.61
50592;BME280;36548;50.506;30.834;2022-09-09T03:31:12;100708.76;;;9.54;59.63
50592;BME280;36548;50.506;30.834;2022-09-09T03:32:23;100708.84;;;9.53;59.71
50592;BME280;36548;50.506;30.834;2022-09-09T03:33:40;100714.49;;;9.64;59.56
50592;BME280;36548;50.506;30.834;2022-09-09T03:34:52;100714.45;;;9.48;59.60
50592;BME280;36548;50.506;30.834;2022-09-09T03:36:01;100708.37;;;9.45;59.71
50592;BME280;36548;50.506;30.834;2022-09-09T03:37:12;100717.34;;;9.61;60.17
50592;BME280;36548;50.506;30.834;2022-09-09T03:38:27;100717.89;;;9.68;59.49
50592;BME280;36548;50.506;30.834;2022-09-09T03:39:39;100716.15;;;9.67;59.66
50592;BME280;36548;50.506;30.834;2022-09-09T03:40:56;100715.86;;;9.89;59.58
50592;BME280;36548;50.506;30.834;2022-09-09T03:42:14;100713.55;;;9.65;59.66
50592;BME280;36548;50.506;30.834;2022-09-09T03:43:25;100718.58;;;9.71;59.28
50592;BME280;36548;50.506;30.834;2022-09-09T03:44:35;100716.13;;;9.84;59.37
50592;BME280;36548;50.506;30.834;2022-09-09T03:45:48;100711.16;;;9.77;58.89
50592;BME280;36548;50.506;30.834;2022-09-09T03:46:58;100712.55;;;9.84;58.67
50592;BME280;36548;50.506;30.834;2022-09-09T03:48:09;100704.95;;;9.92;58.73
50592;BME280;36548;50.506;30.834;2022-09-09T03:49:20;100711.35;;;9.89;58.54
50592;BME280;36548;50.506;30.834;2022-09-09T03:50:32;100723.53;;;9.79;58.75
50592;BME280;36548;50.506;30.834;2022-09-09T03:51:41;100714.57;;;9.96;58.43
50592;BME280;36548;50.506;30.834;2022-09-09T03:52:57;100715.64;;;10.26;58.08
50592;BME280;36548;50.506;30.834;2022-09-09T03:54:07;100711.39;;;10.05;57.94
50592;BME280;36548;50.506;30.834;2022-09-09T03:55:24;100713.31;;;10.19;57.86
50592;BME280;36548;50.506;30.834;2022-09-09T03:56:34;100716.41;;;10.12;58.28
50592;BME280;36548;50.506;30.834;2022-09-09T03:57:50;100713.80;;;9.94;58.29
50592;BME280;36548;50.506;30.834;2022-09-09T03:59:01;100714.66;;;9.95;58.04
50592;BME280;36548;50.506;30.834;2022-09-09T04:00:12;100719.39;;;9.89;57.82
50592;BME280;36548;50.506;30.834;2022-09-09T04:01:27;100718.59;;;10.05;57.80
50592;BME280;36548;50.506;30.834;2022-09-09T04:02:36;100732.03;;;9.87;58.39
50592;BME280;36548;50.506;30.834;2022-09-09T04:03:52;100718.82;;;10.00;58.20
50592;BME280;36548;50.506;30.834;2022-09-09T04:05:08;100722.48;;;10.31;57.91
50592;BME280;36548;50.506;30.834;2022-09-09T04:06:35;100732.99;;;10.52;56.40
50592;BME280;36548;50.506;30.834;2022-09-09T04:07:45;100719.92;;;11.38;55.54
50592;BME280;36548;50.506;30.834;2022-09-09T04:08:54;100725.81;;;11.74;54.30
50592;BME280;36548;50.506;30.834;2022-09-09T04:10:07;100718.89;;;11.70;52.71
50592;BME280;36548;50.506;30.834;2022-09-09T04:11:18;100720.16;;;11.93;52.67
50592;BME280;36548;50.506;30.834;2022-09-09T04:12:33;100711.97;;;11.51;53.18
50592;BME280;36548;50.506;30.834;2022-09-09T04:13:43;100726.75;;;11.44;53.07
50592;BME280;36548;50.506;30.834;2022-09-09T04:14:59;100713.42;;;11.57;53.28
50592;BME280;36548;50.506;30.834;2022-09-09T04:16:10;100727.36;;;11.64;53.11
50592;BME280;36548;50.506;30.834;2022-09-09T04:17:26;100718.99;;;11.68;52.44
50592;BME280;36548;50.506;30.834;2022-09-09T04:18:35;100728.60;;;11.72;52.72
50592;BME280;36548;50.506;30.834;2022-09-09T04:19:45;100719.75;;;11.56;52.75
50592;BME280;36548;50.506;30.834;2022-09-09T04:20:55;100724.92;;;11.59;52.36
50592;BME280;36548;50.506;30.834;2022-09-09T04:22:08;100719.28;;;11.78;52.56
50592;BME280;36548;50.506;30.834;2022-09-09T04:23:19;100721.98;;;12.21;51.95
50592;BME280;36548;50.506;30.834;2022-09-09T04:24:31;100716.53;;;12.65;50.57
50592;BME280;36548;50.506;30.834;2022-09-09T04:25:48;100718.56;;;12.88;49.38
50592;BME280;36548;50.506;30.834;2022-09-09T04:27:03;100710.98;;;13.21;48.70
50592;BME280;36548;50.506;30.834;2022-09-09T04:28:15;100716.88;;;13.13;48.58
50592;BME280;36548;50.506;30.834;2022-09-09T04:29:31;100699.88;;;13.25;49.46
50592;BME280;36548;50.506;30.834;2022-09-09T04:30:42;100715.70;;;13.17;48.08
50592;BME280;36548;50.506;30.834;2022-09-09T04:31:53;100701.28;;;13.31;49.21
50592;BME280;36548;50.506;30.834;2022-09-09T04:33:03;100711.11;;;13.32;47.69
50592;BME280;36548;50.506;30.834;2022-09-09T04:34:19;100698.68;;;13.17;48.34
50592;BME280;36548;50.506;30.834;2022-09-09T04:35:29;100709.53;;;12.48;50.01
50592;BME280;36548;50.506;30.834;2022-09-09T04:36:40;100719.19;;;11.80;51.56
50592;BME280;36548;50.506;30.834;2022-09-09T04:37:58;100723.72;;;11.65;52.14
50592;BME280;36548;50.506;30.834;2022-09-09T04:39:09;100728.66;;;11.42;52.98
50592;BME280;36548;50.506;30.834;2022-09-09T04:40:21;100726.16;;;11.39;53.29
50592;BME280;36548;50.506;30.834;2022-09-09T04:41:36;100727.20;;;11.36;53.38
50592;BME280;36548;50.506;30.834;2022-09-09T04:42:47;100724.33;;;11.09;54.16
50592;BME280;36548;50.506;30.834;2022-09-09T04:44:01;100733.88;;;11.15;54.11
50592;BME280;36548;50.506;30.834;2022-09-09T04:45:16;100730.17;;;11.01;54.46
50592;BME280;36548;50.506;30.834;2022-09-09T04:46:28;100727.35;;;10.88;55.02
50592;BME280;36548;50.506;30.834;2022-09-09T04:48:03;100732.01;;;11.01;55.01
50592;BME280;36548;50.506;30.834;2022-09-09T04:49:12;100755.48;;;10.81;55.34
50592;BME280;36548;50.506;30.834;2022-09-09T04:50:27;100745.12;;;10.75;55.68
50592;BME280;36548;50.506;30.834;2022-09-09T04:51:39;100740.78;;;10.72;55.86
50592;BME280;36548;50.506;30.834;2022-09-09T04:52:51;100740.45;;;10.63;55.88
50592;BME280;36548;50.506;30.834;2022-09-09T04:54:00;100741.82;;;10.70;55.68
50592;BME280;36548;50.506;30.834;2022-09-09T04:55:10;100742.70;;;10.70;55.74
50592;BME280;36548;50.506;30.834;2022-09-09T04:56:25;100750.05;;;10.67;56.26
50592;BME280;36548;50.506;30.834;2022-09-09T04:57:48;100746.48;;;10.82;56.59
50592;BME280;36548;50.506;30.834;2022-09-09T04:58:59;100751.17;;;11.25;56.18
50592;BME280;36548;50.506;30.834;2022-09-09T05:00:15;100751.27;;;11.68;55.46
50592;BME280;36548;50.506;30.834;2022-09-09T05:01:32;100745.66;;;12.16;54.14
50592;BME280;36548;50.506;30.834;2022-09-09T05:02:43;100747.67;;;12.13;52.83
50592;BME280;36548;50.506;30.834;2022-09-09T05:04:18;100746.55;;;12.58;52.25
50592;BME280;36548;50.506;30.834;2022-09-09T05:05:28;100756.73;;;12.68;52.42
50592;BME280;36548;50.506;30.834;2022-09-09T05:06:39;100756.43;;;13.00;52.33
50592;BME280;36548;50.506;30.834;2022-09-09T05:07:48;100752.94;;;13.25;50.88
50592;BME280;36548;50.506;30.834;2022-09-09T05:08:58;100751.64;;;13.58;51.27
50592;BME280;36548;50.506;30.834;2022-09-09T05:10:14;100748.28;;;13.67;48.90
50592;BME280;36548;50.506;30.834;2022-09-09T05:11:28;100749.16;;;13.80;49.55
50592;BME280;36548;50.506;30.834;2022-09-09T05:12:51;100746.45;;;13.93;47.79
50592;BME280;36548;50.506;30.834;2022-09-09T05:13:56;100750.55;;;13.99;48.54
50592;BME280;36548;50.506;30.834;2022-09-09T05:15:07;100749.91;;;14.08;47.92
50592;BME280;36548;50.506;30.834;2022-09-09T05:16:24;100753.00;;;14.28;48.00
50592;BME280;36548;50.506;30.834;2022-09-09T05:17:33;100753.46;;;14.22;47.29
50592;BME280;36548;50.506;30.834;2022-09-09T05:18:43;100758.59;;;14.51;48.33
50592;BME280;36548;50.506;30.834;2022-09-09T05:19:58;100749.92;;;14.95;46.99
50592;BME280;36548;50.506;30.834;2022-09-09T05:21:07;100758.52;;;15.00;46.76
50592;BME280;36548;50.506;30.834;2022-09-09T05:22:22;100750.66;;;15.22;46.02
50592;BME280;36548;50.506;30.834;2022-09-09T05:23:33;100752.59;;;15.20;45.53
50592;BME280;36548;50.506;30.834;2022-09-09T05:24:42;100751.30;;;15.37;45.58
50592;BME280;36548;50.506;30.834;2022-09-09T05:25:57;100754.91;;;15.48;44.51
50592;BME280;36548;50.506;30.834;2022-09-09T05:27:07;100746.55;;;15.51;44.03
50592;BME280;36548;50.506;30.834;2022-09-09T05:28:25;100749.41;;;15.61;44.55
50592;BME280;36548;50.506;30.834;2022-09-09T05:29:34;100737.60;;;15.62;44.54
50592;BME280;36548;50.506;30.834;2022-09-09T05:30:45;100737.62;;;15.74;44.03
50592;BME280;36548;50.506;30.834;2022-09-09T05:32:01;100733.98;;;15.86;43.30
50592;BME280;36548;50.506;30.834;2022-09-09T05:33:11;100728.56;;;15.39;44.20
50592;BME280;36548;50.506;30.834;2022-09-09T05:34:21;100731.11;;;15.29;43.73
50592;BME280;36548;50.506;30.834;2022-09-09T05:35:31;100729.87;;;15.22;44.09
50592;BME280;36548;50.506;30.834;2022-09-09T05:36:42;100731.89;;;15.07;44.38
50592;BME280;36548;50.506;30.834;2022-09-09T05:37:51;100723.39;;;15.36;44.69
50592;BME280;36548;50.506;30.834;2022-09-09T05:39:00;100723.39;;;15.36;44.19
50592;BME280;36548;50.506;30.834;2022-09-09T05:40:16;100726.66;;;15.64;44.73
50592;BME280;36548;50.506;30.834;2022-09-09T05:41:26;100721.87;;;15.67;43.81
50592;BME280;36548;50.506;30.834;2022-09-09T05:42:43;100728.56;;;15.97;43.74
50592;BME280;36548;50.506;30.834;2022-09-09T05:43:53;100730.30;;;15.87;42.80
50592;BME280;36548;50.506;30.834;2022-09-09T05:45:28;100726.48;;;15.90;43.03
50592;BME280;36548;50.506;30.834;2022-09-09T05:46:37;100739.35;;;15.75;43.58
50592;BME280;36548;50.506;30.834;2022-09-09T05:47:52;100737.99;;;15.69;43.55
50592;BME280;36548;50.506;30.834;2022-09-09T05:49:02;100739.20;;;15.54;43.61
50592;BME280;36548;50.506;30.834;2022-09-09T05:50:12;100753.57;;;15.54;43.57
50592;BME280;36548;50.506;30.834;2022-09-09T05:51:27;100737.07;;;15.46;43.71
50592;BME280;36548;50.506;30.834;2022-09-09T05:52:41;100736.61;;;15.52;44.27
50592;BME280;36548;50.506;30.834;2022-09-09T05:53:50;100737.36;;;15.65;44.08
50592;BME280;36548;50.506;30.834;2022-09-09T05:55:07;100731.91;;;15.90;43.65
50592;BME280;36548;50.506;30.834;2022-09-09T05:56:22;100739.14;;;15.89;43.68
50592;BME280;36548;50.506;30.834;2022-09-09T05:57:40;100729.92;;;15.92;43.34
50592;BME280;36548;50.506;30.834;2022-09-09T05:58:50;100738.30;;;15.89;43.55
50592;BME280;36548;50.506;30.834;2022-09-09T06:00:07;100734.11;;;16.07;43.27
50592;BME280;36548;50.506;30.834;2022-09-09T06:01:21;100730.17;;;16.11;43.47
50592;BME280;36548;50.506;30.834;2022-09-09T06:02:37;100732.39;;;16.29;42.77
50592;BME280;36548;50.506;30.834;2022-09-09T06:03:48;100744.33;;;16.26;42.58
50592;BME280;36548;50.506;30.834;2022-09-09T06:05:05;100741.00;;;16.45;42.33
50592;BME280;36548;50.506;30.834;2022-09-09T06:06:24;100742.21;;;16.52;42.30
50592;BME280;36548;50.506;30.834;2022-09-09T06:07:46;100728.47;;;16.77;42.13
50592;BME280;36548;50.506;30.834;2022-09-09T06:08:56;100737.35;;;16.79;41.89
50592;BME280;36548;50.506;30.834;2022-09-09T06:10:08;100742.25;;;16.85;41.19
50592;BME280;36548;50.506;30.834;2022-09-09T06:11:28;100743.98;;;16.86;41.33
50592;BME280;36548;50.506;30.834;2022-09-09T06:12:40;100741.40;;;16.84;41.51
50592;BME280;36548;50.506;30.834;2022-09-09T06:13:56;100746.05;;;17.05;40.95
50592;BME280;36548;50.506;30.834;2022-09-09T06:15:07;100746.89;;;16.62;41.67
50592;BME280;36548;50.506;30.834;2022-09-09T06:16:25;100748.98;;;17.13;41.15
50592;BME280;36548;50.506;30.834;2022-09-09T06:17:36;100743.92;;;17.09;40.69
50592;BME280;36548;50.506;30.834;2022-09-09T06:18:52;100738.80;;;17.27;40.97
50592;BME280;36548;50.506;30.834;2022-09-09T06:20:02;100745.02;;;17.17;40.87
50592;BME280;36548;50.506;30.834;2022-09-09T06:21:30;100754.76;;;17.20;40.54
50592;BME280;36548;50.506;30.834;2022-09-09T06:22:40;100750.81;;;17.13;40.28
50592;BME280;36548;50.506;30.834;2022-09-09T06:23:50;100756.98;;;17.15;40.64
50592;BME280;36548;50.506;30.834;2022-09-09T06:25:08;100752.36;;;17.27;40.99
50592;BME280;36548;50.506;30.834;2022-09-09T06:26:29;100762.63;;;17.23;40.18
50592;BME280;36548;50.506;30.834;2022-09-09T06:29:05;100755.81;;;17.29;40.46
50592;BME280;36548;50.506;30.834;2022-09-09T06:30:15;100758.19;;;17.22;40.02
50592;BME280;36548;50.506;30.834;2022-09-09T06:31:27;100749.48;;;17.07;40.57
50592;BME280;36548;50.506;30.834;2022-09-09T06:32:41;100748.10;;;17.13;40.58
50592;BME280;36548;50.506;30.834;2022-09-09T06:33:53;100741.58;;;17.36;40.75
50592;BME280;36548;50.506;30.834;2022-09-09T06:35:10;100736.12;;;17.48;40.49
50592;BME280;36548;50.506;30.834;2022-09-09T06:36:23;100748.02;;;17.35;40.92
50592;BME280;36548;50.506;30.834;2022-09-09T06:37:44;100739.47;;;17.61;40.33
50592;BME280;36548;50.506;30.834;2022-09-09T06:38:54;100757.22;;;17.65;40.37
50592;BME280;36548;50.506;30.834;2022-09-09T06:40:10;100746.03;;;17.80;39.84
50592;BME280;36548;50.506;30.834;2022-09-09T06:41:23;100746.42;;;17.75;39.84
50592;BME280;36548;50.506;30.834;2022-09-09T06:42:41;100743.27;;;17.91;39.56
50592;BME280;36548;50.506;30.834;2022-09-09T06:44:07;100749.19;;;17.85;38.99
50592;BME280;36548;50.506;30.834;2022-09-09T06:45:22;100748.42;;;17.94;38.92
50592;BME280;36548;50.506;30.834;2022-09-09T06:46:35;100744.36;;;17.88;39.03
50592;BME280;36548;50.506;30.834;2022-09-09T06:47:45;100741.78;;;17.87;39.04
50592;BME280;36548;50.506;30.834;2022-09-09T06:49:20;100746.34;;;17.86;39.18
50592;BME280;36548;50.506;30.834;2022-09-09T06:50:31;100754.84;;;17.72;39.44
50592;BME280;36548;50.506;30.834;2022-09-09T06:51:41;100758.20;;;17.64;39.09
50592;BME280;36548;50.506;30.834;2022-09-09T06:52:53;100757.83;;;17.48;39.58
50592;BME280;36548;50.506;30.834;2022-09-09T06:54:09;100760.78;;;17.45;39.78
50592;BME280;36548;50.506;30.834;2022-09-09T06:55:19;100765.42;;;17.33;40.14
50592;BME280;36548;50.506;30.834;2022-09-09T06:56:38;100751.98;;;17.31;39.61
50592;BME280;36548;50.506;30.834;2022-09-09T06:57:51;100753.51;;;17.24;40.01
50592;BME280;36548;50.506;30.834;2022-09-09T06:59:07;100744.26;;;17.48;39.94
50592;BME280;36548;50.506;30.834;2022-09-09T07:00:19;100754.51;;;17.44;39.80
50592;BME280;36548;50.506;30.834;2022-09-09T07:01:30;100757.22;;;17.44;39.53
50592;BME280;36548;50.506;30.834;2022-09-09T07:02:46;100755.48;;;17.64;39.12
50592;BME280;36548;50.506;30.834;2022-09-09T07:03:57;100755.19;;;17.58;39.13
50592;BME280;36548;50.506;30.834;2022-09-09T07:05:16;100750.39;;;17.71;39.16
50592;BME280;36548;50.506;30.834;2022-09-09T07:06:33;100754.36;;;17.67;38.85
50592;BME280;36548;50.506;30.834;2022-09-09T07:07:43;100757.08;;;17.67;38.46
50592;BME280;36548;50.506;30.834;2022-09-09T07:08:56;100761.52;;;17.68;39.06
50592;BME280;36548;50.506;30.834;2022-09-09T07:10:12;100753.16;;;17.81;38.70
50592;BME280;36548;50.506;30.834;2022-09-09T07:11:24;100754.70;;;17.73;38.94
50592;BME280;36548;50.506;30.834;2022-09-09T07:12:36;100759.86;;;17.77;38.88
50592;BME280;36548;50.506;30.834;2022-09-09T07:13:54;100751.91;;;17.85;38.62
50592;BME280;36548;50.506;30.834;2022-09-09T07:15:06;100773.57;;;17.75;38.82
50592;BME280;36548;50.506;30.834;2022-09-09T07:16:22;100766.61;;;17.82;38.20
50592;BME280;36548;50.506;30.834;2022-09-09T07:17:33;100773.64;;;17.64;38.33
50592;BME280;36548;50.506;30.834;2022-09-09T07:18:47;100764.98;;;17.70;38.48
50592;BME280;36548;50.506;30.834;2022-09-09T07:19:58;100770.02;;;17.53;38.48
50592;BME280;36548;50.506;30.834;2022-09-09T07:21:14;100775.64;;;17.62;38.61
50592;BME280;36548;50.506;30.834;2022-09-09T07:22:24;100779.41;;;17.49;38.56
50592;BME280;36548;50.506;30.834;2022-09-09T07:23:34;100781.70;;;17.33;38.61
50592;BME280;36548;50.506;30.834;2022-09-09T07:24:45;100774.41;;;17.33;38.78
50592;BME280;36548;50.506;30.834;2022-09-09T07:25:56;100778.00;;;17.34;38.89
50592;BME280;36548;50.506;30.834;2022-09-09T07:27:06;100764.53;;;17.32;38.95
50592;BME280;36548;50.506;30.834;2022-09-09T07:28:21;100762.03;;;17.41;39.11
50592;BME280;36548;50.506;30.834;2022-09-09T07:29:31;100772.82;;;16.98;39.87